createdAt,value
2018-04-01T00:00:28.180Z,3.89
2018-04-01T00:02:55.027Z,3.99
2018-04-01T00:05:21.875Z,4.03
2018-04-01T00:07:48.733Z,3.93
2018-04-01T00:10:15.584Z,3.84
2018-04-01T00:12:42.459Z,3.95
2018-04-01T00:15:09.309Z,4.00
2018-04-01T00:17:36.163Z,4.10
2018-04-01T00:20:03.015Z,4.27
2018-04-01T00:22:29.874Z,4.21
2018-04-01T00:24:56.718Z,4.15
2018-04-01T00:27:23.606Z,4.06
2018-04-01T00:29:50.566Z,3.98
2018-04-01T00:32:17.423Z,3.87
2018-04-01T00:34:44.284Z,3.92
2018-04-01T00:37:11.142Z,3.92
2018-04-01T00:39:37.987Z,3.91
2018-04-01T00:42:04.863Z,3.86
2018-04-01T00:44:31.714Z,3.84
2018-04-01T00:46:58.630Z,3.81
2018-04-01T00:49:25.502Z,3.71
2018-04-01T00:51:52.335Z,3.37
2018-04-01T00:54:19.191Z,3.36
2018-04-01T00:56:46.043Z,3.38
2018-04-01T00:59:12.915Z,3.37
2018-04-01T01:01:39.771Z,3.26
2018-04-01T01:04:06.626Z,3.31
2018-04-01T01:06:33.479Z,3.31
2018-04-01T01:09:00.331Z,3.26
2018-04-01T01:11:27.186Z,3.32
2018-04-01T01:13:54.038Z,3.17
2018-04-01T01:16:20.895Z,3.20
2018-04-01T01:18:47.858Z,3.32
2018-04-01T01:21:14.702Z,3.18
2018-04-01T01:23:41.568Z,3.19
2018-04-01T01:26:08.487Z,3.20
2018-04-01T01:28:35.440Z,3.10
2018-04-01T01:31:02.285Z,3.08
2018-04-01T01:33:29.218Z,3.13
2018-04-01T01:35:56.071Z,3.19
2018-04-01T01:38:22.943Z,3.34
2018-04-01T01:40:49.823Z,3.47
2018-04-01T01:43:16.680Z,3.54
2018-04-01T01:45:43.534Z,3.54
2018-04-01T01:48:10.401Z,3.57
2018-04-01T01:50:37.238Z,3.49
2018-04-01T01:53:04.107Z,3.46
2018-04-01T01:55:30.959Z,3.54
2018-04-01T01:57:57.833Z,3.49
2018-04-01T02:00:24.680Z,3.15
2018-04-01T02:02:51.537Z,3.36
2018-04-01T02:05:18.383Z,3.24
2018-04-01T02:07:45.235Z,3.30
2018-04-01T02:10:12.078Z,3.36
2018-04-01T02:12:38.990Z,3.36
2018-04-01T02:15:05.840Z,3.22
2018-04-01T02:17:32.696Z,3.20
2018-04-01T02:19:59.618Z,3.24
2018-04-01T02:22:26.468Z,3.39
2018-04-01T02:24:53.319Z,3.41
2018-04-01T02:27:20.171Z,3.38
2018-04-01T02:29:47.058Z,3.29
2018-04-01T02:32:13.911Z,3.31
2018-04-01T02:34:40.791Z,3.15
2018-04-01T02:37:07.635Z,3.31
2018-04-01T02:39:34.483Z,3.38
2018-04-01T02:42:01.332Z,3.47
2018-04-01T02:44:28.836Z,3.31
2018-04-01T02:46:55.683Z,3.21
2018-04-01T02:49:22.546Z,3.31
2018-04-01T02:51:49.403Z,3.42
2018-04-01T02:54:16.248Z,3.38
2018-04-01T02:56:43.102Z,3.39
2018-04-01T02:59:10.015Z,3.55
2018-04-01T03:01:36.873Z,3.66
2018-04-01T03:04:03.723Z,3.37
2018-04-01T03:06:30.581Z,3.31
2018-04-01T03:08:57.431Z,3.41
2018-04-01T03:11:24.279Z,3.38
2018-04-01T03:13:51.143Z,3.37
2018-04-01T03:16:18.025Z,3.44
2018-04-01T03:18:44.883Z,3.35
2018-04-01T03:21:11.743Z,3.43
2018-04-01T03:23:38.602Z,3.29
2018-04-01T03:26:05.462Z,3.24
2018-04-01T03:28:32.542Z,3.37
2018-04-01T03:30:59.473Z,3.30
2018-04-01T03:33:26.328Z,3.28
2018-04-01T03:35:53.175Z,3.35
2018-04-01T03:38:20.027Z,3.33
2018-04-01T03:40:46.933Z,3.18
2018-04-01T03:43:13.801Z,3.33
2018-04-01T03:45:40.662Z,3.16
2018-04-01T03:48:07.523Z,3.23
2018-04-01T03:50:34.370Z,3.31
2018-04-01T03:53:01.235Z,3.33
2018-04-01T03:55:28.078Z,3.36
2018-04-01T03:57:54.990Z,3.40
2018-04-01T04:00:21.881Z,3.46
2018-04-01T04:02:48.699Z,3.47
2018-04-01T04:05:15.566Z,3.41
2018-04-01T04:07:42.418Z,3.47
2018-04-01T04:10:09.279Z,3.50
2018-04-01T04:12:36.132Z,3.34
2018-04-01T04:15:03.400Z,3.31
2018-04-01T04:17:30.301Z,3.23
2018-04-01T04:19:57.111Z,2.74
2018-04-01T04:22:23.958Z,2.68
2018-04-01T04:24:50.887Z,2.62
2018-04-01T04:27:17.743Z,2.54
2018-04-01T04:29:45.503Z,2.72
2018-04-01T04:32:12.357Z,2.68
2018-04-01T04:34:39.219Z,2.73
2018-04-01T04:37:06.108Z,2.71
2018-04-01T04:39:32.962Z,2.74
2018-04-01T04:41:59.816Z,2.81
2018-04-01T04:44:26.702Z,2.89
2018-04-01T04:46:53.571Z,2.82
2018-04-01T04:49:20.434Z,2.89
2018-04-01T04:51:47.283Z,2.83
2018-04-01T04:54:14.144Z,2.93
2018-04-01T04:56:40.995Z,3.12
2018-04-01T04:59:07.850Z,3.19
2018-04-01T05:01:34.726Z,2.90
2018-04-01T05:04:01.588Z,2.91
2018-04-01T05:06:28.435Z,2.89
2018-04-01T05:08:55.283Z,3.00
2018-04-01T05:11:22.134Z,2.98
2018-04-01T05:13:48.982Z,2.96
2018-04-01T05:16:15.879Z,3.03
2018-04-01T05:18:42.743Z,3.14
2018-04-01T05:21:09.588Z,3.23
2018-04-01T05:23:36.446Z,3.41
2018-04-01T05:26:03.295Z,3.52
2018-04-01T05:28:30.182Z,3.63
2018-04-01T05:30:57.135Z,3.65
2018-04-01T05:33:24.070Z,3.73
2018-04-01T05:35:51.039Z,3.58
2018-04-01T05:38:17.889Z,3.63
2018-04-01T05:40:44.753Z,3.63
2018-04-01T05:43:11.599Z,3.72
2018-04-01T05:45:38.459Z,3.78
2018-04-01T05:48:05.302Z,3.74
2018-04-01T05:50:32.231Z,3.86
2018-04-01T05:52:59.100Z,3.91
2018-04-01T05:55:25.963Z,3.61
2018-04-01T05:57:52.813Z,3.70
2018-04-01T06:00:19.698Z,3.74
2018-04-01T06:02:46.549Z,3.67
2018-04-01T06:05:14.353Z,3.57
2018-04-01T06:07:41.211Z,3.54
2018-04-01T06:10:08.058Z,3.57
2018-04-01T06:12:34.943Z,3.61
2018-04-01T06:15:02.058Z,3.62
2018-04-01T06:17:28.986Z,3.51
2018-04-01T06:19:55.930Z,3.37
2018-04-01T06:22:22.775Z,3.26
2018-04-01T06:24:49.635Z,3.18
2018-04-01T06:27:16.486Z,3.37
2018-04-01T06:29:43.402Z,3.41
2018-04-01T06:32:10.269Z,3.51
2018-04-01T06:34:37.113Z,3.60
2018-04-01T06:37:03.964Z,3.76
2018-04-01T06:39:30.818Z,3.83
2018-04-01T06:41:57.743Z,3.62
2018-04-01T06:44:24.599Z,3.77
2018-04-01T06:46:51.476Z,3.87
2018-04-01T06:49:18.330Z,3.75
2018-04-01T06:51:45.242Z,3.64
2018-04-01T06:54:12.095Z,3.71
2018-04-01T06:56:38.942Z,3.83
2018-04-01T06:59:05.795Z,3.89
2018-04-01T07:01:32.648Z,3.57
2018-04-01T07:03:59.498Z,3.57
2018-04-01T07:06:26.347Z,3.63
2018-04-01T07:08:53.206Z,3.40
2018-04-01T07:11:20.055Z,3.52
2018-04-01T07:13:46.894Z,3.32
2018-04-01T07:16:13.756Z,3.58
2018-04-01T07:18:40.599Z,3.70
2018-04-01T07:21:07.558Z,3.76
2018-04-01T07:23:34.407Z,3.73
2018-04-01T07:26:01.259Z,3.71
2018-04-01T07:28:28.102Z,3.71
2018-04-01T07:30:54.959Z,3.86
2018-04-01T07:33:21.869Z,3.88
2018-04-01T07:35:48.723Z,3.74
2018-04-01T07:38:15.571Z,3.88
2018-04-01T07:40:42.444Z,4.10
2018-04-01T07:43:09.295Z,4.18
2018-04-01T07:45:36.179Z,3.92
2018-04-01T07:48:03.035Z,3.96
2018-04-01T07:50:29.885Z,4.20
2018-04-01T07:52:56.738Z,4.44
2018-04-01T07:55:23.599Z,4.35
2018-04-01T07:57:50.449Z,4.49
2018-04-01T08:00:17.333Z,4.76
2018-04-01T08:02:44.183Z,4.96
2018-04-01T08:05:11.041Z,5.04
2018-04-01T08:07:37.887Z,5.05
2018-04-01T08:10:04.819Z,4.97
2018-04-01T08:12:31.663Z,5.03
2018-04-01T08:14:58.544Z,4.94
2018-04-01T08:17:25.362Z,5.02
2018-04-01T08:19:52.244Z,4.91
2018-04-01T08:22:19.095Z,4.88
2018-04-01T08:24:45.983Z,4.82
2018-04-01T08:27:12.831Z,4.64
2018-04-01T08:29:39.719Z,4.71
2018-04-01T08:32:06.634Z,4.95
2018-04-01T08:34:33.511Z,4.84
2018-04-01T08:37:00.422Z,4.89
2018-04-01T08:39:27.281Z,4.96
2018-04-01T08:41:54.214Z,5.20
2018-04-01T08:44:21.155Z,5.46
2018-04-01T08:46:47.998Z,5.68
2018-04-01T08:49:14.854Z,5.96
2018-04-01T08:51:41.783Z,6.09
2018-04-01T08:54:08.727Z,6.13
2018-04-01T08:56:35.647Z,6.29
2018-04-01T08:59:02.515Z,6.42
2018-04-01T09:01:29.459Z,6.25
2018-04-01T09:03:56.400Z,6.21
2018-04-01T09:06:23.367Z,6.18
2018-04-01T09:08:50.201Z,6.30
2018-04-01T09:11:17.050Z,6.04
2018-04-01T09:13:43.970Z,5.87
2018-04-01T09:16:10.844Z,5.58
2018-04-01T09:18:37.683Z,5.80
2018-04-01T09:21:04.538Z,5.92
2018-04-01T09:23:31.455Z,5.94
2018-04-01T09:25:58.382Z,6.10
2018-04-01T09:28:25.242Z,6.17
2018-04-01T09:30:52.196Z,6.41
2018-04-01T09:33:19.028Z,6.46
2018-04-01T09:35:46.827Z,6.63
2018-04-01T09:38:13.674Z,6.21
2018-04-01T09:40:40.519Z,6.04
2018-04-01T09:43:07.378Z,6.07
2018-04-01T09:45:34.340Z,6.15
2018-04-01T09:48:01.163Z,6.26
2018-04-01T09:50:28.014Z,6.28
2018-04-01T09:52:54.859Z,6.53
2018-04-01T09:55:21.714Z,6.69
2018-04-01T09:57:48.546Z,6.45
2018-04-01T10:00:21.106Z,6.21
2018-04-01T10:02:48.498Z,6.21
2018-04-01T10:05:16.808Z,6.34
2018-04-01T10:07:44.183Z,6.35
2018-04-01T10:10:11.620Z,6.33
2018-04-01T10:12:39.026Z,6.39
2018-04-01T10:15:06.445Z,6.36
2018-04-01T10:17:33.838Z,6.32
2018-04-01T10:20:01.248Z,5.98
2018-04-01T10:22:28.698Z,6.14
2018-04-01T10:24:56.074Z,6.41
2018-04-01T10:27:23.454Z,6.43
2018-04-01T10:29:50.835Z,6.59
2018-04-01T10:32:18.325Z,6.65
2018-04-01T10:34:45.702Z,6.43
2018-04-01T10:37:13.082Z,6.60
2018-04-01T10:39:40.482Z,6.71
2018-04-01T10:42:07.870Z,6.84
2018-04-01T10:44:35.251Z,6.87
2018-04-01T10:47:02.648Z,6.85
2018-04-01T10:49:30.029Z,6.75
2018-04-01T10:51:57.410Z,6.67
2018-04-01T10:54:24.250Z,6.84
2018-04-01T10:59:22.096Z,6.68
2018-04-01T11:01:48.938Z,6.75
2018-04-01T11:04:15.780Z,6.70
2018-04-01T11:06:42.623Z,6.90
2018-04-01T11:09:09.530Z,7.07
2018-04-01T11:11:36.366Z,7.18
2018-04-01T11:14:03.239Z,7.26
2018-04-01T11:16:30.080Z,7.28
2018-04-01T11:18:57.022Z,7.08
2018-04-01T11:21:23.865Z,6.86
2018-04-01T11:23:50.722Z,6.75
2018-04-01T11:26:17.566Z,6.76
2018-04-01T11:28:44.495Z,6.85
2018-04-01T11:31:11.351Z,6.87
2018-04-01T11:33:38.195Z,6.66
2018-04-01T11:36:05.045Z,6.83
2018-04-01T11:38:31.893Z,7.00
2018-04-01T11:40:58.734Z,7.07
2018-04-01T11:43:25.582Z,7.25
2018-04-01T11:45:52.486Z,7.30
2018-04-01T11:48:19.335Z,7.20
2018-04-01T11:50:46.186Z,7.09
2018-04-01T11:53:13.123Z,7.19
2018-04-01T11:55:39.977Z,6.89
2018-04-01T11:58:06.819Z,7.10
2018-04-01T12:00:33.671Z,7.29
2018-04-01T12:03:00.608Z,7.49
2018-04-01T12:05:27.536Z,7.74
2018-04-01T12:07:54.374Z,7.63
2018-04-01T12:10:21.324Z,7.64
2018-04-01T12:12:48.266Z,7.71
2018-04-01T12:15:15.122Z,7.70
2018-04-01T12:17:42.015Z,7.64
2018-04-01T12:20:08.886Z,7.21
2018-04-01T12:22:35.711Z,7.30
2018-04-01T12:25:02.652Z,7.24
2018-04-01T12:27:29.590Z,7.16
2018-04-01T12:29:56.443Z,7.11
2018-04-01T12:32:23.290Z,7.22
2018-04-01T12:34:50.154Z,7.42
2018-04-01T12:37:17.006Z,7.44
2018-04-01T12:39:43.850Z,7.55
2018-04-01T12:42:10.691Z,7.78
2018-04-01T12:44:37.563Z,7.88
2018-04-01T12:47:04.422Z,7.97
2018-04-01T12:49:31.362Z,7.83
2018-04-01T12:51:58.225Z,7.80
2018-04-01T12:54:25.159Z,7.56
2018-04-01T12:56:52.018Z,7.55
2018-04-01T12:59:18.872Z,7.55
2018-04-01T13:01:45.761Z,7.26
2018-04-01T13:04:12.570Z,7.41
2018-04-01T13:06:39.423Z,7.54
2018-04-01T13:09:06.279Z,7.29
2018-04-01T13:11:33.139Z,7.09
2018-04-01T13:13:59.991Z,6.97
2018-04-01T13:16:26.934Z,7.02
2018-04-01T13:18:53.787Z,7.05
2018-04-01T13:21:20.733Z,7.03
2018-04-01T13:23:47.579Z,6.84
2018-04-01T13:26:14.517Z,6.91
2018-04-01T13:28:41.460Z,6.57
2018-04-01T13:31:08.315Z,6.71
2018-04-01T13:33:35.170Z,6.68
2018-04-01T13:36:02.026Z,6.78
2018-04-01T13:38:28.883Z,6.72
2018-04-01T13:40:55.769Z,6.70
2018-04-01T13:43:22.627Z,6.82
2018-04-01T13:45:49.550Z,6.73
2018-04-01T13:48:16.519Z,6.70
2018-04-01T13:50:43.447Z,6.93
2018-04-01T13:53:10.286Z,7.03
2018-04-01T13:55:37.145Z,6.95
2018-04-01T13:58:03.999Z,7.25
2018-04-01T14:00:30.845Z,7.26
2018-04-01T14:02:57.704Z,7.26
2018-04-01T14:05:24.628Z,7.33
2018-04-01T14:07:51.582Z,7.02
2018-04-01T14:10:18.438Z,6.95
2018-04-01T14:12:45.394Z,6.72
2018-04-01T14:15:12.237Z,6.88
2018-04-01T14:17:39.103Z,6.96
2018-04-01T14:20:05.957Z,7.06
2018-04-01T14:22:32.866Z,7.18
2018-04-01T14:24:59.728Z,7.23
2018-04-01T14:27:26.583Z,7.18
2018-04-01T14:29:53.430Z,7.15
2018-04-01T14:32:20.330Z,7.22
2018-04-01T14:34:47.177Z,7.50
2018-04-01T14:37:14.031Z,7.66
2018-04-01T14:39:40.883Z,7.70
2018-04-01T14:42:07.814Z,7.79
2018-04-01T14:44:34.743Z,7.40
2018-04-01T14:47:01.695Z,7.47
2018-04-01T14:49:28.631Z,7.49
2018-04-01T14:51:55.628Z,7.43
2018-04-01T14:54:22.524Z,7.35
2018-04-01T14:56:49.471Z,7.33
2018-04-01T14:59:16.320Z,7.12
2018-04-01T15:01:43.183Z,7.13
2018-04-01T15:04:10.060Z,7.16
2018-04-01T15:06:36.940Z,7.19
2018-04-01T15:09:03.784Z,7.22
2018-04-01T15:11:30.674Z,7.57
2018-04-01T15:13:57.567Z,7.64
2018-04-01T15:16:24.425Z,7.89
2018-04-01T15:18:51.358Z,8.15
2018-04-01T15:21:18.303Z,8.48
2018-04-01T15:23:45.243Z,8.74
2018-04-01T15:26:12.107Z,8.90
2018-04-01T15:28:38.944Z,8.90
2018-04-01T15:31:05.795Z,9.09
2018-04-01T15:33:32.639Z,9.07
2018-04-01T15:35:59.564Z,8.92
2018-04-01T15:38:26.412Z,8.91
2018-04-01T15:40:53.340Z,9.19
2018-04-01T15:43:20.192Z,8.81
2018-04-01T15:45:47.127Z,8.72
2018-04-01T15:48:13.992Z,8.78
2018-04-01T15:50:40.898Z,8.45
2018-04-01T15:53:07.778Z,8.41
2018-04-01T15:55:34.710Z,8.48
2018-04-01T15:58:01.652Z,8.60
2018-04-01T16:00:28.596Z,8.42
2018-04-01T16:02:55.582Z,8.36
2018-04-01T16:05:22.418Z,8.31
2018-04-01T16:07:49.267Z,8.17
2018-04-01T16:10:16.128Z,8.01
2018-04-01T16:12:43.001Z,7.93
2018-04-01T16:15:09.834Z,7.94
2018-04-01T16:17:36.694Z,8.02
2018-04-01T16:20:03.543Z,7.96
2018-04-01T16:22:30.486Z,7.73
2018-04-01T16:24:57.330Z,7.77
2018-04-01T16:27:24.192Z,7.69
2018-04-01T16:29:51.048Z,7.53
2018-04-01T16:32:17.890Z,7.47
2018-04-01T16:34:44.727Z,7.52
2018-04-01T16:37:11.582Z,7.49
2018-04-01T16:39:38.543Z,7.39
2018-04-01T16:42:05.275Z,7.36
2018-04-01T16:44:32.114Z,7.39
2018-04-01T16:46:59.065Z,7.48
2018-04-01T16:49:25.919Z,7.63
2018-04-01T16:51:52.859Z,7.75
2018-04-01T16:54:19.703Z,7.84
2018-04-01T16:56:46.686Z,7.97
2018-04-01T16:59:13.522Z,7.63
2018-04-01T17:01:40.374Z,7.70
2018-04-01T17:04:07.214Z,7.56
2018-04-01T17:06:34.067Z,7.27
2018-04-01T17:09:00.965Z,7.07
2018-04-01T17:11:27.822Z,7.10
2018-04-01T17:13:54.751Z,7.00
2018-04-01T17:16:21.607Z,7.15
2018-04-01T17:18:48.450Z,7.15
2018-04-01T17:21:15.300Z,7.21
2018-04-01T17:23:42.222Z,7.17
2018-04-01T17:26:09.070Z,6.91
2018-04-01T17:28:35.939Z,6.69
2018-04-01T17:31:02.790Z,6.58
2018-04-01T17:33:29.763Z,6.46
2018-04-01T17:35:56.611Z,6.35
2018-04-01T17:38:23.454Z,6.37
2018-04-01T17:40:50.539Z,6.30
2018-04-01T17:43:17.460Z,6.43
2018-04-01T17:45:44.339Z,6.34
2018-04-01T17:48:11.195Z,6.16
2018-04-01T17:50:38.123Z,6.19
2018-04-01T17:53:05.085Z,6.12
2018-04-01T17:55:31.962Z,5.80
2018-04-01T17:57:58.826Z,5.64
2018-04-01T18:00:25.683Z,5.78
2018-04-01T18:02:52.650Z,5.55
2018-04-01T18:05:19.506Z,5.63
2018-04-01T18:07:46.378Z,5.58
2018-04-01T18:10:13.224Z,5.34
2018-04-01T18:12:40.114Z,5.27
2018-04-01T18:15:06.976Z,5.12
2018-04-01T18:17:33.836Z,5.03
2018-04-01T18:20:00.747Z,4.99
2018-04-01T18:22:27.601Z,5.17
2018-04-01T18:24:54.454Z,5.19
2018-04-01T18:27:21.373Z,4.93
2018-04-01T18:29:48.450Z,4.84
2018-04-01T18:32:15.314Z,4.89
2018-04-01T18:34:42.216Z,4.71
2018-04-01T18:37:09.155Z,4.50
2018-04-01T18:39:36.098Z,4.40
2018-04-01T18:42:03.046Z,4.36
2018-04-01T18:44:29.964Z,4.41
2018-04-01T18:46:56.818Z,4.25
2018-04-01T18:49:23.666Z,4.29
2018-04-01T18:51:50.527Z,4.25
2018-04-01T18:54:17.460Z,4.29
2018-04-01T18:56:44.394Z,4.28
2018-04-01T18:59:11.255Z,4.34
2018-04-01T19:01:38.182Z,4.29
2018-04-01T19:04:05.030Z,4.30
2018-04-01T19:06:31.883Z,4.27
2018-04-01T19:08:58.819Z,4.19
2018-04-01T19:11:25.663Z,3.96
2018-04-01T19:13:52.570Z,3.82
2018-04-01T19:16:19.978Z,3.73
2018-04-01T19:18:47.414Z,3.75
2018-04-01T19:21:14.870Z,3.51
2018-04-01T19:23:42.268Z,3.55
2018-04-01T19:26:09.654Z,3.48
2018-04-01T19:28:37.102Z,3.46
2018-04-01T19:31:04.510Z,3.60
2018-04-01T19:33:31.911Z,3.50
2018-04-01T19:35:59.298Z,3.28
2018-04-01T19:38:26.694Z,3.36
2018-04-01T19:40:54.087Z,3.34
2018-04-01T19:43:21.490Z,3.19
2018-04-01T19:45:48.875Z,3.13
2018-04-01T19:48:16.332Z,3.12
2018-04-01T19:50:43.741Z,3.14
2018-04-01T19:53:11.128Z,3.19
2018-04-01T19:55:38.524Z,3.10
2018-04-01T19:58:05.920Z,3.16
2018-04-01T20:00:33.338Z,3.02
2018-04-01T20:03:00.733Z,3.18
2018-04-01T20:05:28.138Z,2.98
2018-04-01T20:07:55.597Z,2.93
2018-04-01T20:10:22.986Z,2.96
2018-04-01T20:12:50.408Z,2.99
2018-04-01T20:15:17.789Z,2.99
2018-04-01T20:17:45.203Z,3.03
2018-04-01T20:20:12.601Z,3.10
2018-04-01T20:22:40.011Z,3.02
2018-04-01T20:25:07.407Z,3.08
2018-04-01T20:27:34.870Z,2.77
2018-04-01T20:30:02.260Z,2.85
2018-04-01T20:32:29.731Z,2.92
2018-04-01T20:34:57.155Z,2.78
2018-04-01T20:37:24.547Z,2.89
2018-04-01T20:39:52.003Z,2.85
2018-04-01T20:42:19.386Z,2.81
2018-04-01T20:44:46.814Z,2.85
2018-04-01T20:47:14.207Z,2.81
2018-04-01T20:49:41.603Z,2.85
2018-04-01T20:52:09.075Z,2.83
2018-04-01T20:54:37.139Z,2.84
2018-04-01T20:57:04.512Z,2.68
2018-04-01T20:59:31.911Z,2.73
2018-04-01T21:01:59.306Z,2.49
2018-04-01T21:04:26.699Z,2.62
2018-04-01T21:06:54.118Z,2.50
2018-04-01T21:09:21.526Z,2.44
2018-04-01T21:11:48.924Z,2.42
2018-04-01T21:14:16.324Z,2.29
2018-04-01T21:16:43.739Z,2.31
2018-04-01T21:19:11.204Z,2.37
2018-04-01T21:21:38.590Z,2.38
2018-04-01T21:24:06.002Z,2.42
2018-04-01T21:26:33.468Z,2.28
2018-04-01T21:29:00.895Z,2.52
2018-04-01T21:31:28.284Z,2.60
2018-04-01T21:33:55.682Z,2.73
2018-04-01T21:36:23.155Z,2.58
2018-04-01T21:38:50.552Z,2.49
2018-04-01T21:41:17.938Z,2.37
2018-04-01T21:43:45.342Z,2.41
2018-04-01T21:46:12.748Z,2.48
2018-04-01T21:48:40.159Z,2.68
2018-04-01T21:51:07.550Z,2.68
2018-04-01T21:53:34.953Z,2.52
2018-04-01T21:56:02.351Z,2.44
2018-04-01T21:58:29.774Z,2.50
2018-04-01T22:00:57.170Z,2.29
2018-04-01T22:03:24.579Z,2.42
2018-04-01T22:05:51.962Z,2.46
2018-04-01T22:08:19.363Z,2.53
2018-04-01T22:10:46.786Z,2.23
2018-04-01T22:13:14.178Z,2.14
2018-04-01T22:15:41.599Z,2.13
2018-04-01T22:18:09.431Z,2.31
2018-04-01T22:20:36.932Z,2.17
2018-04-01T22:23:17.475Z,2.23
2018-04-01T22:25:44.876Z,2.11
2018-04-01T22:28:12.286Z,2.15
2018-04-01T22:30:39.683Z,2.21
2018-04-01T22:33:07.164Z,2.17
2018-04-01T22:35:34.619Z,2.16
2018-04-01T22:38:02.067Z,2.21
2018-04-01T22:40:29.462Z,2.02
2018-04-01T22:42:56.879Z,1.81
2018-04-01T22:45:24.281Z,1.63
2018-04-01T22:47:51.670Z,1.73
2018-04-01T22:50:19.086Z,1.81
2018-04-01T22:52:46.488Z,1.70
2018-04-01T22:55:13.894Z,1.76
2018-04-01T22:57:41.294Z,1.75
2018-04-01T23:00:08.695Z,1.72
2018-04-01T23:02:36.120Z,1.62
2018-04-01T23:05:03.513Z,1.58
2018-04-01T23:07:30.898Z,1.79
2018-04-01T23:09:58.297Z,1.57
2018-04-01T23:12:25.697Z,1.73
2018-04-01T23:14:53.108Z,1.81
2018-04-01T23:17:20.499Z,1.68
2018-04-01T23:19:48.003Z,1.57
2018-04-01T23:22:15.390Z,1.60
2018-04-01T23:24:42.782Z,1.56
2018-04-01T23:27:10.183Z,1.52
2018-04-01T23:29:37.626Z,1.50
2018-04-01T23:32:05.087Z,1.56
2018-04-01T23:34:32.535Z,1.67
2018-04-01T23:37:00.854Z,1.73
2018-04-01T23:39:28.270Z,1.81
2018-04-01T23:41:55.667Z,1.73
2018-04-01T23:44:23.058Z,1.76
2018-04-01T23:46:50.442Z,1.61
2018-04-01T23:49:17.882Z,1.62
2018-04-01T23:51:45.275Z,1.79
2018-04-01T23:54:12.679Z,1.64
2018-04-01T23:56:40.153Z,1.79
2018-04-01T23:59:08.315Z,1.71
